Marechal Rondon Airport
SBCY : now visible

Airfield :











YOU CAN JOIN US ON...

 
LOGIN :

Register | Disclaimer

   EN    FR    IT 

 









Legend :    VFR   Marginal VFR   IFR   Intensive IFR   Very Intensive IFR
Visi :
Ceiling :
>= 8 km
>= 3000ft
5 to 8 km
1000 to 3000 ft
1500m to 5 km
500 to 1000 ft
800 to 1500m
200 to 500 ft
< 800m
< 200 ft
Symbols :   Thunderstorms  Fog  Heavy snow  Heavy precipitations  Wind > 20 kt






- Airport Elevation : 617 ft
- IATA code : CGB


SBCY - Marechal Rondon

CURRENT METAR :
  • 020300Z 14004KT CAVOK 22/18 Q1017

EXPIRED METARs :
  • 020200Z 16005KT CAVOK 23/19 Q1017
  • 020100Z 15004KT CAVOK 23/19 Q1016

TAF TAF SBCY
Valid from the 02 at 00:00 until the 03 at 00:00 UTC


012100Z 0200/0224 13005KT CAVOK TN20/0207Z TX34/0217Z
BECMG 0200/0202 31004KT
BECMG 0214/0216 11005KT RMK PDU
SBBS FIR / South America



MET'MAP, your aeronautical weather chart ! - Copyright ORBIFLY December 2007 - Disclaimer

ORBIFLY MET'MAP TEAM :

Programming & Development : Alexandra Zaïnal
Concept & original design : Baudouin d'Aumeries
Assistance for programming : Marc-Olivier Méhu
Technical & hardware support : Manuel Goepfert

Contact : metmap@orbifly.com




SOURCES & CREDITS :

   NOAA       Earth
Advisory